sensor_id;sensor_type;location;lat;lon;timestamp;pressure;altitude;pressure_sealevel;temperature;humidity
36304;BME280;22335;49.800;8.596;2023-08-31T00:03:12;99776.91;;;19.81;57.79
36304;BME280;22335;49.800;8.596;2023-08-31T00:09:57;99847.97;;;20.21;57.85
36304;BME280;22335;49.800;8.596;2023-08-31T00:16:41;99852.25;;;20.18;57.70
36304;BME280;22335;49.800;8.596;2023-08-31T00:23:27;99796.75;;;19.64;58.15
36304;BME280;22335;49.800;8.596;2023-08-31T00:30:13;99854.50;;;19.93;58.72
36304;BME280;22335;49.800;8.596;2023-08-31T00:36:57;99865.72;;;19.81;58.58
36304;BME280;22335;49.800;8.596;2023-08-31T00:43:40;99792.66;;;19.26;58.75
36304;BME280;22335;49.800;8.596;2023-08-31T00:50:26;99862.72;;;19.70;58.88
36304;BME280;22335;49.800;8.596;2023-08-31T00:57:10;99876.13;;;19.68;57.79
36304;BME280;22335;49.800;8.596;2023-08-31T01:03:58;99875.84;;;19.57;58.82
36304;BME280;22335;49.800;8.596;2023-08-31T01:10:59;99877.47;;;19.43;58.98
36304;BME280;22335;49.800;8.596;2023-08-31T01:17:48;99886.56;;;19.59;59.42
36304;BME280;22335;49.800;8.596;2023-08-31T01:24:34;99882.56;;;19.41;58.66
36304;BME280;22335;49.800;8.596;2023-08-31T01:31:18;99880.50;;;19.38;59.26
36304;BME280;22335;49.800;8.596;2023-08-31T01:38:03;99873.91;;;19.42;59.49
36304;BME280;22335;49.800;8.596;2023-08-31T01:44:53;99882.38;;;19.49;59.38
36304;BME280;22335;49.800;8.596;2023-08-31T01:51:39;99889.00;;;19.45;59.28
36304;BME280;22335;49.800;8.596;2023-08-31T01:58:22;99901.44;;;19.35;59.46
36304;BME280;22335;49.800;8.596;2023-08-31T02:05:08;99900.63;;;19.19;59.60
36304;BME280;22335;49.800;8.596;2023-08-31T02:11:52;99908.66;;;19.08;59.84
36304;BME280;22335;49.800;8.596;2023-08-31T02:18:36;99907.59;;;19.12;59.81
36304;BME280;22335;49.800;8.596;2023-08-31T02:25:20;99896.69;;;19.20;59.72
36304;BME280;22335;49.800;8.596;2023-08-31T02:32:04;99903.94;;;19.24;59.73
36304;BME280;22335;49.800;8.596;2023-08-31T02:38:48;99911.56;;;19.43;59.71
36304;BME280;22335;49.800;8.596;2023-08-31T02:45:33;99920.75;;;19.47;59.63
36304;BME280;22335;49.800;8.596;2023-08-31T02:52:17;99920.13;;;19.38;59.83
36304;BME280;22335;49.800;8.596;2023-08-31T02:59:00;99911.53;;;19.11;60.30
36304;BME280;22335;49.800;8.596;2023-08-31T03:05:46;99894.94;;;18.83;60.72
36304;BME280;22335;49.800;8.596;2023-08-31T03:12:29;99851.09;;;18.45;60.98
36304;BME280;22335;49.800;8.596;2023-08-31T03:19:14;99936.28;;;18.76;61.59
36304;BME280;22335;49.800;8.596;2023-08-31T03:25:59;99935.50;;;18.63;61.42
36304;BME280;22335;49.800;8.596;2023-08-31T03:32:48;99947.88;;;18.54;61.71
36304;BME280;22335;49.800;8.596;2023-08-31T03:39:32;99957.13;;;18.46;61.96
36304;BME280;22335;49.800;8.596;2023-08-31T03:46:17;99957.97;;;18.34;62.09
36304;BME280;22335;49.800;8.596;2023-08-31T03:53:01;99967.22;;;18.26;62.37
36304;BME280;22335;49.800;8.596;2023-08-31T03:59:44;99965.16;;;18.10;62.38
36304;BME280;22335;49.800;8.596;2023-08-31T04:06:31;99968.97;;;18.06;62.68
36304;BME280;22335;49.800;8.596;2023-08-31T04:13:14;99976.13;;;17.94;62.65
36304;BME280;22335;49.800;8.596;2023-08-31T04:19:57;99983.84;;;17.89;62.78
36304;BME280;22335;49.800;8.596;2023-08-31T04:26:43;99977.72;;;17.83;62.86
36304;BME280;22335;49.800;8.596;2023-08-31T04:33:26;99987.63;;;17.72;62.69
36304;BME280;22335;49.800;8.596;2023-08-31T04:40:10;99990.81;;;17.62;62.74
36304;BME280;22335;49.800;8.596;2023-08-31T04:46:56;99930.34;;;17.15;62.80
36304;BME280;22335;49.800;8.596;2023-08-31T04:53:39;99992.31;;;17.47;62.91
36304;BME280;22335;49.800;8.596;2023-08-31T05:00:23;100002.50;;;17.34;63.10
36304;BME280;22335;49.800;8.596;2023-08-31T05:07:07;100021.72;;;17.31;63.39
36304;BME280;22335;49.800;8.596;2023-08-31T05:13:51;100031.66;;;17.32;63.37
36304;BME280;22335;49.800;8.596;2023-08-31T05:20:34;100035.78;;;17.25;63.27
36304;BME280;22335;49.800;8.596;2023-08-31T05:27:19;100039.91;;;17.19;63.46
36304;BME280;22335;49.800;8.596;2023-08-31T05:34:03;100041.38;;;17.17;63.55
36304;BME280;22335;49.800;8.596;2023-08-31T05:40:46;100039.31;;;16.93;63.63
36304;BME280;22335;49.800;8.596;2023-08-31T05:47:31;100067.72;;;17.14;63.90
36304;BME280;22335;49.800;8.596;2023-08-31T05:54:16;100076.31;;;17.34;63.80
36304;BME280;22335;49.800;8.596;2023-08-31T06:01:00;100078.34;;;17.45;63.98
36304;BME280;22335;49.800;8.596;2023-08-31T06:07:45;100061.88;;;17.49;64.01
36304;BME280;22335;49.800;8.596;2023-08-31T06:14:28;100046.22;;;17.53;64.00
36304;BME280;22335;49.800;8.596;2023-08-31T06:21:12;100079.66;;;17.93;63.80
36304;BME280;22335;49.800;8.596;2023-08-31T06:27:58;100067.34;;;18.03;63.56
36304;BME280;22335;49.800;8.596;2023-08-31T06:34:41;100109.09;;;18.23;63.27
36304;BME280;22335;49.800;8.596;2023-08-31T06:41:24;100112.44;;;18.16;63.55
36304;BME280;22335;49.800;8.596;2023-08-31T06:48:09;100112.53;;;18.19;63.55
36304;BME280;22335;49.800;8.596;2023-08-31T06:54:53;100116.56;;;18.10;63.63
36304;BME280;22335;49.800;8.596;2023-08-31T07:01:37;100133.38;;;18.05;63.76
36304;BME280;22335;49.800;8.596;2023-08-31T07:08:22;100138.00;;;18.01;64.04
36304;BME280;22335;49.800;8.596;2023-08-31T07:15:06;100144.72;;;18.12;63.94
36304;BME280;22335;49.800;8.596;2023-08-31T07:21:50;100144.47;;;18.17;63.72
36304;BME280;22335;49.800;8.596;2023-08-31T07:28:37;100143.22;;;18.14;63.69
36304;BME280;22335;49.800;8.596;2023-08-31T07:35:21;100155.56;;;18.17;63.94
36304;BME280;22335;49.800;8.596;2023-08-31T07:42:05;100043.66;;;17.48;63.76
36304;BME280;22335;49.800;8.596;2023-08-31T07:48:51;100155.56;;;18.17;63.66
36304;BME280;22335;49.800;8.596;2023-08-31T07:55:34;100118.06;;;18.07;63.71
36304;BME280;22335;49.800;8.596;2023-08-31T08:02:18;100165.88;;;18.53;63.64
36304;BME280;22335;49.800;8.596;2023-08-31T08:09:03;100174.19;;;18.65;62.91
36304;BME280;22335;49.800;8.596;2023-08-31T08:15:47;100177.81;;;18.78;62.52
36304;BME280;22335;49.800;8.596;2023-08-31T08:22:31;100180.88;;;19.01;62.25
36304;BME280;22335;49.800;8.596;2023-08-31T08:29:16;100177.06;;;19.18;62.59
36304;BME280;22335;49.800;8.596;2023-08-31T08:36:00;100191.97;;;19.54;61.63
36304;BME280;22335;49.800;8.596;2023-08-31T08:42:46;100190.94;;;19.71;61.30
36304;BME280;22335;49.800;8.596;2023-08-31T08:49:32;100192.47;;;19.84;60.94
36304;BME280;22335;49.800;8.596;2023-08-31T08:56:17;100195.94;;;20.09;60.50
36304;BME280;22335;49.800;8.596;2023-08-31T09:03:01;100192.59;;;20.32;60.66
36304;BME280;22335;49.800;8.596;2023-08-31T09:09:50;100136.31;;;20.19;60.61
36304;BME280;22335;49.800;8.596;2023-08-31T09:16:34;100191.00;;;20.78;60.26
36304;BME280;22335;49.800;8.596;2023-08-31T09:23:18;100198.59;;;20.97;59.61
36304;BME280;22335;49.800;8.596;2023-08-31T09:30:06;100184.06;;;21.04;58.83
36304;BME280;22335;49.800;8.596;2023-08-31T09:36:50;100203.84;;;21.18;58.79
36304;BME280;22335;49.800;8.596;2023-08-31T09:43:34;100186.72;;;21.16;58.40
36304;BME280;22335;49.800;8.596;2023-08-31T09:50:20;100160.50;;;21.17;56.21
36304;BME280;22335;49.800;8.596;2023-08-31T09:57:05;100201.84;;;21.34;54.94
36304;BME280;22335;49.800;8.596;2023-08-31T10:03:49;100193.75;;;21.45;54.59
36304;BME280;22335;49.800;8.596;2023-08-31T10:10:34;100191.56;;;21.54;55.00
36304;BME280;22335;49.800;8.596;2023-08-31T10:17:20;100192.44;;;21.58;54.76
36304;BME280;22335;49.800;8.596;2023-08-31T10:24:04;100179.81;;;21.64;53.98
36304;BME280;22335;49.800;8.596;2023-08-31T10:31:01;100186.06;;;21.97;52.76
36304;BME280;22335;49.800;8.596;2023-08-31T10:37:46;100200.78;;;22.17;53.20
36304;BME280;22335;49.800;8.596;2023-08-31T10:44:30;100183.88;;;22.29;52.20
36304;BME280;22335;49.800;8.596;2023-08-31T10:51:17;100131.34;;;22.08;51.82
36304;BME280;22335;49.800;8.596;2023-08-31T10:58:09;100174.53;;;22.41;52.37
36304;BME280;22335;49.800;8.596;2023-08-31T11:04:54;100172.59;;;22.45;51.22
36304;BME280;22335;49.800;8.596;2023-08-31T11:11:41;100169.97;;;22.52;50.75
36304;BME280;22335;49.800;8.596;2023-08-31T11:18:24;100146.91;;;22.32;51.13
36304;BME280;22335;49.800;8.596;2023-08-31T11:25:11;100160.13;;;22.85;50.34
36304;BME280;22335;49.800;8.596;2023-08-31T11:31:57;100161.56;;;22.98;47.55
36304;BME280;22335;49.800;8.596;2023-08-31T11:38:41;100141.47;;;23.15;46.68
36304;BME280;22335;49.800;8.596;2023-08-31T11:45:25;100171.25;;;23.38;46.08
36304;BME280;22335;49.800;8.596;2023-08-31T11:52:11;100080.00;;;23.08;45.31
36304;BME280;22335;49.800;8.596;2023-08-31T11:58:55;100156.81;;;23.62;43.98
36304;BME280;22335;49.800;8.596;2023-08-31T12:05:46;100142.63;;;23.75;43.50
36304;BME280;22335;49.800;8.596;2023-08-31T12:12:31;100140.00;;;23.89;43.86
36304;BME280;22335;49.800;8.596;2023-08-31T12:19:16;100150.09;;;24.01;43.36
36304;BME280;22335;49.800;8.596;2023-08-31T12:26:00;100153.34;;;24.06;43.82
36304;BME280;22335;49.800;8.596;2023-08-31T12:32:47;100144.81;;;23.92;43.38
36304;BME280;22335;49.800;8.596;2023-08-31T12:39:30;100169.06;;;23.84;42.44
36304;BME280;22335;49.800;8.596;2023-08-31T12:46:14;100142.47;;;23.64;42.93
36304;BME280;22335;49.800;8.596;2023-08-31T12:52:59;100097.59;;;23.46;41.99
36304;BME280;22335;49.800;8.596;2023-08-31T12:59:43;100163.13;;;23.89;42.56
36304;BME280;22335;49.800;8.596;2023-08-31T13:06:27;100137.06;;;23.78;43.99
36304;BME280;22335;49.800;8.596;2023-08-31T13:13:11;100159.75;;;24.07;43.33
36304;BME280;22335;49.800;8.596;2023-08-31T13:19:56;100173.72;;;24.07;43.82
36304;BME280;22335;49.800;8.596;2023-08-31T13:26:41;100147.81;;;24.10;42.56
36304;BME280;22335;49.800;8.596;2023-08-31T13:33:31;100143.81;;;24.11;43.22
36304;BME280;22335;49.800;8.596;2023-08-31T13:40:14;100146.19;;;24.12;44.12
36304;BME280;22335;49.800;8.596;2023-08-31T13:46:58;100159.97;;;24.28;42.99
36304;BME280;22335;49.800;8.596;2023-08-31T13:53:45;100151.19;;;24.33;43.60
36304;BME280;22335;49.800;8.596;2023-08-31T14:00:29;100152.84;;;24.38;42.57
36304;BME280;22335;49.800;8.596;2023-08-31T14:07:13;100059.69;;;23.79;41.80
36304;BME280;22335;49.800;8.596;2023-08-31T14:14:03;100136.16;;;24.45;42.91
36304;BME280;22335;49.800;8.596;2023-08-31T14:20:50;100075.91;;;24.03;43.13
36304;BME280;22335;49.800;8.596;2023-08-31T14:27:34;100158.22;;;24.57;41.83
36304;BME280;22335;49.800;8.596;2023-08-31T14:34:19;100136.69;;;24.61;40.85
36304;BME280;22335;49.800;8.596;2023-08-31T14:41:02;100153.75;;;24.49;41.16
36304;BME280;22335;49.800;8.596;2023-08-31T14:47:47;100156.16;;;24.47;41.37
36304;BME280;22335;49.800;8.596;2023-08-31T14:54:33;100138.16;;;24.45;41.52
36304;BME280;22335;49.800;8.596;2023-08-31T15:01:16;100150.13;;;24.45;42.02
36304;BME280;22335;49.800;8.596;2023-08-31T15:08:01;100146.19;;;24.50;40.66
36304;BME280;22335;49.800;8.596;2023-08-31T15:14:47;100097.59;;;24.21;41.21
36304;BME280;22335;49.800;8.596;2023-08-31T15:21:31;100069.88;;;24.01;41.82
36304;BME280;22335;49.800;8.596;2023-08-31T15:28:14;100153.72;;;24.42;42.22
36304;BME280;22335;49.800;8.596;2023-08-31T15:34:59;100135.66;;;24.36;42.32
36304;BME280;22335;49.800;8.596;2023-08-31T15:41:42;100126.31;;;24.17;42.04
36304;BME280;22335;49.800;8.596;2023-08-31T15:48:26;100097.03;;;24.01;41.42
36304;BME280;22335;49.800;8.596;2023-08-31T15:55:11;100151.72;;;24.43;41.64
36304;BME280;22335;49.800;8.596;2023-08-31T16:01:55;100120.72;;;24.17;41.44
36304;BME280;22335;49.800;8.596;2023-08-31T16:08:38;100161.78;;;24.54;41.40
36304;BME280;22335;49.800;8.596;2023-08-31T16:15:24;100138.69;;;24.65;41.25
36304;BME280;22335;49.800;8.596;2023-08-31T16:22:08;100150.69;;;24.65;41.73
36304;BME280;22335;49.800;8.596;2023-08-31T16:28:52;100155.94;;;24.74;42.71
36304;BME280;22335;49.800;8.596;2023-08-31T16:35:37;100102.59;;;24.45;42.74
36304;BME280;22335;49.800;8.596;2023-08-31T16:42:20;100159.47;;;24.64;42.04
36304;BME280;22335;49.800;8.596;2023-08-31T16:49:04;100085.16;;;24.14;42.38
36304;BME280;22335;49.800;8.596;2023-08-31T16:55:48;100155.38;;;24.50;41.99
36304;BME280;22335;49.800;8.596;2023-08-31T17:02:32;100162.91;;;24.46;42.36
36304;BME280;22335;49.800;8.596;2023-08-31T17:09:15;100152.84;;;24.38;42.40
36304;BME280;22335;49.800;8.596;2023-08-31T17:16:00;100158.53;;;24.45;42.41
36304;BME280;22335;49.800;8.596;2023-08-31T17:22:46;100166.03;;;24.37;42.63
36304;BME280;22335;49.800;8.596;2023-08-31T17:29:29;100178.34;;;24.33;42.70
36304;BME280;22335;49.800;8.596;2023-08-31T17:36:14;100169.03;;;24.22;43.23
36304;BME280;22335;49.800;8.596;2023-08-31T17:42:59;100145.94;;;23.87;42.82
36304;BME280;22335;49.800;8.596;2023-08-31T17:49:42;100122.53;;;23.65;42.99
36304;BME280;22335;49.800;8.596;2023-08-31T17:56:27;100191.31;;;24.11;43.05
36304;BME280;22335;49.800;8.596;2023-08-31T18:03:12;100142.53;;;23.67;43.66
36304;BME280;22335;49.800;8.596;2023-08-31T18:09:55;100184.19;;;23.80;44.18
36304;BME280;22335;49.800;8.596;2023-08-31T18:16:40;100198.22;;;23.87;44.29
36304;BME280;22335;49.800;8.596;2023-08-31T18:23:23;100244.88;;;23.83;44.45
36304;BME280;22335;49.800;8.596;2023-08-31T18:30:10;100237.03;;;23.65;45.73
36304;BME280;22335;49.800;8.596;2023-08-31T18:36:56;100242.97;;;23.60;46.27
36304;BME280;22335;49.800;8.596;2023-08-31T18:43:39;100210.94;;;23.24;46.30
36304;BME280;22335;49.800;8.596;2023-08-31T18:50:25;100139.84;;;22.61;46.88
36304;BME280;22335;49.800;8.596;2023-08-31T18:57:10;100269.28;;;23.33;47.30
36304;BME280;22335;49.800;8.596;2023-08-31T19:03:53;100276.31;;;23.23;47.19
36304;BME280;22335;49.800;8.596;2023-08-31T19:10:38;100290.38;;;23.07;47.28
36304;BME280;22335;49.800;8.596;2023-08-31T19:17:23;100284.50;;;22.89;47.94
36304;BME280;22335;49.800;8.596;2023-08-31T19:24:06;100293.75;;;22.70;48.54
36304;BME280;22335;49.800;8.596;2023-08-31T19:30:50;100301.53;;;22.42;49.59
36304;BME280;22335;49.800;8.596;2023-08-31T19:37:36;100303.50;;;22.18;50.27
36304;BME280;22335;49.800;8.596;2023-08-31T19:44:21;100264.53;;;21.83;51.24
36304;BME280;22335;49.800;8.596;2023-08-31T19:51:07;100243.69;;;21.57;50.99
36304;BME280;22335;49.800;8.596;2023-08-31T19:57:52;100282.63;;;21.73;51.60
36304;BME280;22335;49.800;8.596;2023-08-31T20:04:36;100306.94;;;21.76;51.85
36304;BME280;22335;49.800;8.596;2023-08-31T20:11:20;100302.59;;;21.59;52.51
36304;BME280;22335;49.800;8.596;2023-08-31T20:18:05;100297.72;;;21.37;53.59
36304;BME280;22335;49.800;8.596;2023-08-31T20:24:49;100301.66;;;21.20;54.22
36304;BME280;22335;49.800;8.596;2023-08-31T20:31:32;100303.81;;;21.11;54.79
36304;BME280;22335;49.800;8.596;2023-08-31T20:38:18;100296.72;;;20.98;55.35
36304;BME280;22335;49.800;8.596;2023-08-31T20:45:02;100308.47;;;20.91;55.88
36304;BME280;22335;49.800;8.596;2023-08-31T20:51:46;100310.88;;;20.77;56.67
36304;BME280;22335;49.800;8.596;2023-08-31T20:58:31;100304.22;;;20.65;57.33
36304;BME280;22335;49.800;8.596;2023-08-31T21:05:15;100277.22;;;20.22;58.13
36304;BME280;22335;49.800;8.596;2023-08-31T21:11:59;100246.34;;;19.95;58.10
36304;BME280;22335;49.800;8.596;2023-08-31T21:18:44;100305.56;;;20.27;58.44
36304;BME280;22335;49.800;8.596;2023-08-31T21:25:27;100316.31;;;20.29;58.45
36304;BME280;22335;49.800;8.596;2023-08-31T21:32:11;100316.09;;;20.22;59.09
36304;BME280;22335;49.800;8.596;2023-08-31T21:38:56;100299.84;;;20.08;59.43
36304;BME280;22335;49.800;8.596;2023-08-31T21:45:40;100301.88;;;19.95;59.25
36304;BME280;22335;49.800;8.596;2023-08-31T21:52:24;100291.59;;;19.84;59.71
36304;BME280;22335;49.800;8.596;2023-08-31T21:59:08;100267.59;;;19.51;59.83
36304;BME280;22335;49.800;8.596;2023-08-31T22:05:52;100319.84;;;19.73;59.88
36304;BME280;22335;49.800;8.596;2023-08-31T22:12:39;100301.81;;;19.67;60.29
36304;BME280;22335;49.800;8.596;2023-08-31T22:19:24;100301.34;;;19.65;60.55
36304;BME280;22335;49.800;8.596;2023-08-31T22:26:08;100308.28;;;19.71;60.64
36304;BME280;22335;49.800;8.596;2023-08-31T22:32:52;100305.56;;;19.87;60.64
36304;BME280;22335;49.800;8.596;2023-08-31T22:39:38;100295.28;;;19.88;60.83
36304;BME280;22335;49.800;8.596;2023-08-31T22:46:21;100288.72;;;19.80;61.23
36304;BME280;22335;49.800;8.596;2023-08-31T22:53:05;100281.81;;;19.74;61.39
36304;BME280;22335;49.800;8.596;2023-08-31T22:59:50;100283.66;;;19.70;61.88
36304;BME280;22335;49.800;8.596;2023-08-31T23:06:33;100279.63;;;19.67;61.73
36304;BME280;22335;49.800;8.596;2023-08-31T23:13:17;100230.06;;;19.29;61.76
36304;BME280;22335;49.800;8.596;2023-08-31T23:20:02;100267.38;;;19.44;62.36
36304;BME280;22335;49.800;8.596;2023-08-31T23:26:46;100261.50;;;19.33;61.12
36304;BME280;22335;49.800;8.596;2023-08-31T23:33:30;100256.19;;;19.28;61.95
36304;BME280;22335;49.800;8.596;2023-08-31T23:40:14;100243.69;;;19.34;62.17
36304;BME280;22335;49.800;8.596;2023-08-31T23:46:58;100248.75;;;19.56;62.09
36304;BME280;22335;49.800;8.596;2023-08-31T23:53:41;100191.22;;;19.41;61.74
